Latest Weather Observations for Kingfish B

IDV60801

Issued at 8:52 pm EST Wednesday 5 August 2020 (issued every 10 minutes, with the page automatically refreshed every 10 minutes)

About weather observations | Map of weather stations | Latest weather observations for VIC | Other Formats
Station Details ID: 400139 Name: KINGFISH B (PLATFORM) Lat: -38.60 Lon: 148.19 Height: 31.4 m
Data from the previous 72 hours. | See also: Recent months for locations in Victoria
Date/Time
EST
Temp
°C
App
Temp
°C
Dew
Point
°C
Rel
Hum
%
Delta-T
°C
Wind Press
QNH
hPa
Press
MSL
hPa
Rain since
9am
mm
Dir  Spd
km/h
Gust
km/h
Spd
kts
Gust
kts
05/07:40pm 11.0 -0.2 4.0 62 3.1 SW 52 59 28 32 1011.7 - -
05/07:30pm 11.0 0.2 4.3 63 3.0 SW 50 59 27 32 1011.7 - -
05/07:20pm 11.0 0.6 4.1 62 3.1 SW 48 56 26 30 1011.8 - -
05/07:10pm 11.0 0.1 3.8 61 3.2 SW 50 57 27 31 1011.6 - -
05/07:00pm 11.0 0.2 4.1 62 3.1 SW 50 59 27 32 1011.7 - -
05/06:50pm 11.0 0.2 4.0 62 3.1 SW 50 59 27 32 1011.9 - -
05/06:40pm 10.9 0.0 3.8 61 3.1 SW 50 61 27 33 1012.0 - -
05/06:30pm 11.0 -0.5 4.2 63 3.0 SW 54 63 29 34 1011.6 - -
05/06:20pm 10.9 -0.6 4.2 63 3.0 SW 54 63 29 34 1011.5 - -
05/06:10pm 10.9 -0.3 4.1 63 3.0 SW 52 61 28 33 1011.7 - -
05/06:00pm 10.8 -0.7 4.5 65 2.8 SW 54 63 29 34 1011.4 - -
05/05:50pm 10.9 0.3 5.0 67 2.7 SW 50 61 27 33 1011.1 - -
05/05:40pm 10.8 -0.6 4.9 67 2.7 SW 54 63 29 34 1011.7 - -
05/05:30pm 11.0 -0.8 4.6 64 2.9 SW 56 67 30 36 1010.9 - -
05/05:20pm 11.1 -0.8 4.3 63 3.1 SW 56 63 30 34 1010.9 - -
05/05:10pm 11.1 -0.7 4.7 64 2.9 SW 56 63 30 34 1010.8 - -
05/05:00pm 11.1 -0.9 4.9 65 2.8 SW 57 69 31 37 1010.3 - -
05/04:50pm 11.1 -0.9 5.0 66 2.8 SW 57 67 31 36 1010.3 - -
05/04:40pm 11.1 -0.7 5.0 66 2.8 SW 56 67 30 36 1010.1 - -
05/04:30pm 11.2 -0.7 5.2 66 2.7 SW 57 67 31 36 1010.0 - -
05/04:20pm 11.1 -0.9 4.8 65 2.9 SW 57 67 31 36 1010.0 - -
05/04:10pm 11.2 -1.2 4.8 64 2.9 SW 59 69 32 37 1009.7 - -
05/04:00pm 11.3 -0.7 5.0 65 2.9 SW 57 65 31 35 1009.7 - -
05/03:50pm 11.2 -1.2 4.9 65 2.9 SW 59 69 32 37 1009.3 - -
05/03:40pm 11.3 -1.0 5.2 66 2.8 SW 59 69 32 37 1009.3 - -
05/03:30pm 11.3 -0.6 5.2 66 2.8 SW 57 67 31 36 1009.3 - -
05/03:20pm 11.4 -0.8 5.5 67 2.7 SW 59 69 32 37 1009.0 - -
05/03:10pm 11.5 -0.7 5.8 68 2.7 SW 59 69 32 37 1008.9 - -
05/03:00pm 11.5 -0.7 5.7 67 2.7 SW 59 69 32 37 1008.8 - -
05/02:50pm 11.4 -0.8 5.7 68 2.6 SW 59 70 32 38 1008.7 - -
05/02:40pm 11.4 -1.2 5.7 68 2.6 SW 61 70 33 38 1008.4 - -
05/02:30pm 11.4 -0.8 5.8 68 2.6 SW 59 69 32 37 1008.3 - -
05/02:20pm 11.4 -0.4 5.5 67 2.7 SW 57 69 31 37 1008.2 - -
05/02:10pm 11.5 -1.1 5.7 67 2.7 SW 61 70 33 38 1007.9 - -
05/02:00pm 11.5 -1.1 5.6 67 2.7 SW 61 69 33 37 1007.9 - -
05/01:50pm 11.6 -1.3 5.8 67 2.7 SW 63 70 34 38 1007.9 - -
05/01:40pm 11.8 0.0 5.9 67 2.8 SW 57 67 31 36 1008.1 - -
05/01:30pm 11.9 0.2 5.5 65 3.0 SW 56 63 30 34 1008.1 - -
05/01:20pm 11.8 0.4 5.1 63 3.1 SW 54 63 29 34 1008.2 - -
05/01:10pm 11.6 -0.3 4.5 61 3.2 SW 56 63 30 34 1008.5 - -
05/01:00pm 11.7 -0.3 4.9 63 3.1 SW 57 67 31 36 1008.3 - -
05/12:50pm 11.6 -0.4 5.0 64 3.0 SW 57 70 31 38 1008.3 - -
05/12:40pm 11.6 -0.7 5.2 65 2.9 SW 59 69 32 37 1008.2 - -
05/12:30pm 11.7 -0.1 5.6 66 2.8 SW 57 69 31 37 1008.2 - -
05/12:20pm 11.7 -0.1 5.5 66 2.9 SW 57 69 31 37 1008.3 - -
05/12:10pm 11.8 0.4 4.9 62 3.2 SW 54 65 29 35 1008.5 - -
05/12:00pm 11.7 -0.2 4.5 61 3.3 SW 56 63 30 34 1009.2 - -
05/11:50am 11.7 -0.1 4.6 62 3.2 SW 56 65 30 35 1009.2 - -
05/11:40am 11.7 0.7 4.9 63 3.1 SW 52 63 28 34 1009.0 - -
05/11:30am 11.5 0.4 4.5 62 3.2 SW 52 63 28 34 1009.0 - -
05/11:20am 11.3 0.3 4.8 64 3.0 SW 52 61 28 33 1009.3 - -
05/11:10am 11.3 0.3 5.2 66 2.8 SW 52 63 28 34 1009.3 - -
05/11:00am 11.0 -0.7 5.1 67 2.7 SW 56 65 30 35 1009.4 - -
05/10:50am 10.8 -0.5 5.3 69 2.5 SW 54 63 29 34 1009.4 - -
05/10:40am 10.6 -0.7 5.4 70 2.4 SW 54 70 29 38 1009.5 - -
05/10:30am 10.5 -0.8 5.4 70 2.3 SW 54 63 29 34 1009.5 - -
05/10:20am 10.2 -1.1 5.2 71 2.3 SSW 54 65 29 35 1009.7 - -
05/10:10am 10.1 -1.2 5.2 71 2.2 SSW 54 67 29 36 1009.8 - -
05/10:00am 10.1 -0.5 5.3 72 2.2 SSW 50 61 27 33 1009.8 - -
05/09:50am 9.8 -0.8 5.1 72 2.1 SSW 50 57 27 31 1009.7 - -
05/09:40am 9.9 0.1 5.1 72 2.2 SSW 46 56 25 30 1009.7 - -
05/09:30am 9.8 -0.9 4.8 71 2.2 SSW 50 63 27 34 1009.6 - -
05/09:20am 9.7 -1.0 4.7 71 2.2 SSW 50 61 27 33 1010.0 - -
05/09:10am 9.9 -0.8 4.7 70 2.3 SSW 50 63 27 34 1009.7 - -
05/09:00am 10.2 -0.8 4.8 69 2.4 SSW 52 63 28 34 1009.7 - -
05/08:50am 10.1 -0.6 4.5 68 2.5 SSW 50 57 27 31 1009.6 - -
05/08:40am 9.9 -0.1 4.5 69 2.4 SSW 46 56 25 30 1009.6 - -
05/08:30am 9.8 -0.2 4.3 68 2.4 SSW 46 54 25 29 1009.5 - -
05/08:20am 9.8 -0.2 4.2 68 2.5 SSW 46 54 25 29 1009.4 - -
05/08:10am 10.2 0.2 4.4 67 2.6 SSW 46 52 25 28 1009.1 - -
05/08:00am 9.7 -0.3 4.2 68 2.4 SSW 46 52 25 28 1008.8 - -
05/07:50am 9.5 0.1 4.4 70 2.3 SSW 43 52 23 28 1008.7 - -
05/07:40am 9.2 0.9 4.1 70 2.2 SSW 37 44 20 24 1008.7 - -
05/07:30am 8.8 0.0 3.8 71 2.2 SSW 39 48 21 26 1008.6 - -
05/07:20am 8.7 -0.5 3.6 70 2.2 SSW 41 52 22 28 1008.5 - -
05/07:10am 8.5 -0.7 3.5 71 2.2 SSW 41 48 22 26 1008.4 - -
05/07:00am 8.3 -1.3 3.2 70 2.2 SSW 43 48 23 26 1008.2 - -
05/06:50am 8.3 -1.0 3.1 70 2.2 SSW 41 48 22 26 1008.0 - -
05/06:40am 8.3 -1.4 2.9 69 2.3 SSW 43 48 23 26 1007.9 - -
05/06:30am 8.4 -1.3 3.0 69 2.3 SSW 43 48 23 26 1007.7 - -
05/06:20am 8.1 -1.6 3.0 70 2.2 S 43 50 23 27 1007.6 - -
05/06:10am 8.0 -1.2 3.3 72 2.0 S 41 46 22 25 1007.3 - -
05/06:00am 8.0 -1.2 3.7 74 1.9 S 41 46 22 25 1007.0 - -
05/05:50am 7.8 -1.3 3.8 76 1.7 S 41 50 22 27 1006.7 - -
05/05:40am 7.6 -1.1 4.3 79 1.4 S 39 48 21 26 1006.2 - -
05/05:30am 7.4 -0.8 4.5 82 1.3 S 37 44 20 24 1005.9 - -
05/05:20am 7.3 -1.3 4.4 82 1.3 S 39 44 21 24 1005.8 - -
05/05:10am 7.3 -1.3 4.4 82 1.3 S 39 48 21 26 1005.5 - -
05/05:00am 7.4 -1.3 4.2 80 1.4 S 39 48 21 26 1005.4 - -
05/04:50am 7.5 -1.5 4.4 81 1.4 S 41 48 22 26 1005.3 - -
05/04:40am 7.6 -1.4 4.5 81 1.4 S 41 48 22 26 1005.2 - -
05/04:30am 7.5 -1.5 4.4 81 1.4 S 41 50 22 27 1004.9 - -
05/04:20am 7.5 -1.6 4.2 79 1.4 S 41 54 22 29 1004.7 - -
05/04:10am 7.8 -2.2 4.2 78 1.6 S 46 52 25 28 1004.7 - -
05/04:00am 8.2 -1.4 4.3 76 1.7 S 44 52 24 28 1004.4 - -
05/03:50am 8.4 -2.4 4.3 75 1.8 SSW 50 57 27 31 1004.4 - -
05/03:40am 8.4 -2.7 4.3 75 1.8 SSW 52 61 28 33 1004.2 - -
05/03:30am 8.4 -3.5 4.4 76 1.8 SSW 56 63 30 34 1003.9 - -
05/03:20am 8.4 -3.1 4.6 77 1.7 SW 54 63 29 34 1003.5 - -
05/03:10am 8.2 -2.8 4.9 80 1.5 SW 52 59 28 32 1003.1 - -
05/03:00am 8.2 -2.8 5.2 81 1.3 SW 52 57 28 31 1002.6 - -
05/02:50am 8.0 -2.2 5.3 83 1.2 SW 48 57 26 31 1002.4 - -
05/02:40am 7.8 -2.0 5.4 85 1.1 SW 46 57 25 31 1002.5 - -
05/02:30am 7.8 -2.0 5.4 85 1.1 W 46 69 25 37 1002.8 - -
05/02:20am 7.5 -2.3 5.1 85 1.1 W 46 59 25 32 1003.2 - -
05/02:10am 7.2 -3.9 4.7 84 1.1 W 52 61 28 33 1003.3 - -
05/02:00am 6.9 -4.2 4.3 83 1.1 W 52 61 28 33 1003.7 - -
05/01:50am 6.9 -5.0 4.3 83 1.1 W 56 63 30 34 1003.8 - -
05/01:40am 6.7 -5.4 4.0 83 1.2 W 57 69 31 37 1004.0 - -
05/01:30am 6.4 -5.8 3.6 82 1.2 W 57 69 31 37 1004.2 - -
05/01:20am 6.1 -6.1 2.9 80 1.3 WNW 56 67 30 36 1004.8 - -
05/01:10am 6.2 -5.2 2.7 78 1.4 WNW 52 61 28 33 1005.2 - -
05/01:00am 6.0 -5.2 2.0 75 1.6 WNW 50 65 27 35 1005.6 - -
05/12:50am 6.5 -5.0 2.4 75 1.7 W 52 61 28 33 1005.6 - -
05/12:40am 6.8 -5.0 2.9 76 1.6 W 54 65 29 35 1005.7 - -
05/12:30am 7.3 -4.8 3.4 76 1.7 W 56 63 30 34 1005.7 - -
05/12:20am 7.5 -3.8 3.7 77 1.6 W 52 63 28 34 1005.9 - -
05/12:10am 7.6 -4.0 3.8 77 1.6 W 54 63 29 34 1006.0 - -
05/12:00am 7.8 -3.4 3.8 76 1.7 W 52 65 28 35 1006.0 - -
 
Date/Time
EST
Temp
°C
App
Temp
°C
Dew
Point
°C
Rel
Hum
%
Delta-T
°C
Wind Press
QNH
hPa
Press
MSL
hPa
Rain since
9am
mm
Dir  Spd
km/h
Gust
km/h
Spd
kts
Gust
kts
04/11:00pm 7.6 -2.9 3.6 76 1.7 W 48 57 26 31 1007.0 - -
04/10:50pm 7.6 -2.5 3.6 76 1.7 W 46 56 25 30 1007.2 - -
04/10:40pm 7.5 -3.0 3.6 76 1.7 W 48 56 26 30 1007.3 - -
04/10:30pm 7.4 -3.5 3.7 77 1.6 W 50 57 27 31 1007.5 - -
04/10:20pm 7.3 -3.2 3.7 78 1.5 W 48 59 26 32 1007.6 - -
04/10:10pm 7.3 -3.6 3.6 77 1.6 W 50 59 27 32 1007.6 - -
04/10:00pm 7.1 -4.6 3.5 78 1.5 W 54 63 29 34 1007.5 - -
04/09:50pm 6.9 -4.5 3.1 77 1.6 WNW 52 63 28 34 1007.6 - -
04/09:40pm 7.0 -2.7 2.9 75 1.7 W 43 56 23 30 1008.2 - -
04/09:30pm 7.1 -2.6 3.1 76 1.7 W 43 52 23 28 1008.3 - -
04/09:20pm 7.1 -1.4 3.1 76 1.7 W 37 44 20 24 1008.4 - -
04/09:10pm 6.8 -1.0 2.8 75 1.7 W 33 43 18 23 1008.6 - -
04/09:00pm 6.6 -2.0 2.5 75 1.7 W 37 46 20 25 1008.8 - -
04/08:50pm 6.5 -3.3 2.3 74 1.7 W 43 56 23 30 1008.8 - -
04/08:40pm 6.8 -2.2 2.4 73 1.8 W 39 54 21 29 1008.9 - -
04/08:30pm 6.9 -2.5 2.3 72 1.9 W 41 50 22 27 1008.7 - -
04/08:20pm 7.2 -1.8 2.3 71 2.0 WSW 39 56 21 30 1008.7 - -
04/08:10pm 7.5 -0.1 2.7 71 2.0 WSW 32 41 17 22 1008.8 - -
04/08:00pm 7.2 -1.5 2.2 70 2.1 WSW 37 44 20 24 1008.6 - -
04/07:50pm 6.8 -1.5 1.9 71 2.0 WSW 35 43 19 23 1008.5 - -
04/07:40pm 6.9 -1.8 2.2 72 1.9 WSW 37 50 20 27 1008.5 - -
04/07:30pm 6.9 -2.1 2.3 72 1.9 WSW 39 56 21 30 1008.4 - -
04/07:20pm 6.6 -2.1 2.0 72 1.9 WSW 37 46 20 25 1008.3 - -
04/07:10pm 6.5 -2.6 1.9 72 1.9 SW 39 46 21 25 1008.1 - -
04/07:00pm 6.5 -2.9 2.2 74 1.8 SW 41 48 22 26 1008.0 - -
04/06:50pm 6.5 -2.9 2.2 74 1.8 SW 41 46 22 25 1008.0 - -
04/06:40pm 6.5 -2.9 2.2 74 1.8 SW 41 48 22 26 1008.2 - -
04/06:30pm 6.4 -4.0 2.1 74 1.8 SW 46 54 25 29 1007.9 - -
04/06:20pm 6.5 -3.9 2.2 74 1.8 SW 46 57 25 31 1007.9 - -
04/06:10pm 6.4 -4.4 2.1 74 1.8 SW 48 54 26 29 1007.7 - -
04/06:00pm 6.5 -3.5 2.1 73 1.8 SW 44 52 24 28 1007.8 - -
04/05:50pm 6.6 -3.8 2.2 73 1.8 SW 46 56 25 30 1007.6 - -
04/05:40pm 6.7 -3.6 2.4 74 1.8 SW 46 54 25 29 1007.6 - -
04/05:30pm 7.0 -2.9 2.6 73 1.8 WSW 44 52 24 28 1007.5 - -
04/05:20pm 7.0 -3.3 2.6 73 1.8 WSW 46 54 25 29 1007.5 - -
04/05:10pm 6.9 -3.4 2.6 74 1.8 W 46 57 25 31 1007.4 - -
04/05:00pm 6.7 -4.8 2.2 73 1.8 W 52 59 28 32 1007.4 - -
04/04:50pm 6.9 -5.0 2.4 73 1.9 W 54 69 29 37 1007.3 - -
04/04:40pm 7.1 -4.7 2.5 72 1.9 W 54 63 29 34 1007.3 - -
04/04:30pm 7.2 -3.9 2.5 72 1.9 W 50 61 27 33 1007.3 - -
04/04:20pm 7.1 -1.5 2.4 72 1.9 W 37 54 20 29 1007.4 - -
04/04:10pm 7.0 -1.7 2.3 72 1.9 W 37 46 20 25 1007.7 - -
04/04:00pm 7.3 -2.7 2.4 71 2.0 W 44 56 24 30 1007.4 - -
04/03:50pm 7.3 -2.1 2.3 70 2.1 W 41 46 22 25 1007.4 - -
04/03:40pm 7.2 -2.3 2.0 69 2.1 W 41 52 22 28 1007.6 - -
04/03:30pm 7.6 -2.8 2.3 69 2.2 WSW 46 57 25 31 1007.3 - -
04/03:20pm 7.6 -3.6 2.1 68 2.3 W 50 59 27 32 1007.2 - -
04/03:10pm 7.6 -4.0 1.8 67 2.4 WSW 52 63 28 34 1006.9 - -
04/03:00pm 8.1 -4.2 2.0 65 2.5 W 56 69 30 37 1006.7 - -
04/02:50pm 8.0 -3.9 1.9 65 2.5 W 54 65 29 35 1006.7 - -
04/02:40pm 8.0 -3.5 2.3 67 2.4 WSW 52 63 28 34 1006.6 - -
04/02:30pm 7.8 -5.0 2.4 68 2.2 W 59 70 32 38 1006.5 - -
04/02:20pm 7.7 -5.1 2.6 70 2.1 W 59 70 32 38 1006.4 - -
04/02:10pm 7.8 -4.5 3.0 71 2.0 WSW 57 70 31 38 1006.3 - -
04/02:00pm 7.5 -4.8 2.9 72 1.9 WSW 57 70 31 38 1006.3 - -
04/01:50pm 7.4 -5.0 2.6 71 2.0 W 57 70 31 38 1006.4 - -
04/01:40pm 7.4 -4.1 2.5 71 2.0 W 52 63 28 34 1006.6 - -
04/01:30pm 7.4 -4.9 2.1 69 2.2 W 56 65 30 35 1006.8 - -
04/01:20pm 8.3 -5.4 1.9 64 2.6 W 63 76 34 41 1006.5 - -
04/01:10pm 8.8 -4.2 1.2 59 3.1 W 59 69 32 37 1006.5 - -
04/01:00pm 8.9 -2.4 1.2 58 3.1 W 50 61 27 33 1006.7 - -
04/12:50pm 8.7 -3.4 0.8 57 3.2 W 54 65 29 35 1006.7 - -
04/12:40pm 8.7 -3.0 1.2 59 3.1 W 52 63 28 34 1006.8 - -
04/12:30pm 9.3 -0.2 1.5 58 3.2 W 41 54 22 29 1007.1 - -
04/12:20pm 8.9 -1.3 1.0 57 3.2 W 44 56 24 30 1007.1 - -
04/12:10pm 8.9 -2.8 0.9 57 3.2 W 52 57 28 31 1007.1 - -
04/12:00pm 8.8 -1.3 1.3 59 3.1 W 44 57 24 31 1007.2 - -
04/11:50am 8.7 -1.5 0.9 58 3.2 W 44 56 24 30 1007.5 - -
04/11:40am 8.6 -1.6 1.2 59 3.0 W 44 54 24 29 1007.5 - -
04/11:30am 8.5 -1.7 1.2 60 3.0 W 44 52 24 28 1007.7 - -
04/11:20am 8.6 -1.3 1.6 61 2.9 W 43 52 23 28 1007.8 - -
04/11:10am 8.6 -0.9 1.5 61 2.9 WSW 41 48 22 26 1007.8 - -
04/11:00am 8.6 -1.3 1.9 63 2.8 W 43 50 23 27 1008.1 - -
04/10:50am 8.6 -0.8 2.5 65 2.6 WSW 41 50 22 27 1008.2 - -
04/10:40am 8.6 -0.4 2.5 65 2.6 W 39 50 21 27 1008.5 - -
04/10:30am 8.4 -1.4 2.4 66 2.5 W 43 50 23 27 1008.5 - -
04/10:20am 8.4 -1.4 2.5 66 2.5 W 43 50 23 27 1008.4 - -
04/10:10am 8.2 -1.5 2.8 69 2.3 W 43 48 23 26 1008.5 - -
04/10:00am 8.3 -0.7 2.7 68 2.4 W 39 50 21 27 1008.6 - -
04/09:50am 8.2 -0.4 2.6 68 2.4 WSW 37 46 20 25 1008.6 - -
04/09:40am 8.1 -0.5 2.8 69 2.2 WSW 37 44 20 24 1008.7 - -
04/09:30am 8.0 0.2 2.9 70 2.2 W 33 43 18 23 1008.8 - -
04/09:20am 7.7 -0.5 2.9 71 2.0 W 35 43 19 23 1009.1 - -
04/09:10am 7.6 -0.2 3.0 72 1.9 W 33 43 18 23 1009.2 - -
04/09:00am 7.5 -0.3 3.0 73 1.9 WSW 33 39 18 21 1009.1 - -
04/08:50am 7.5 -0.3 3.1 73 1.9 WSW 33 41 18 22 1009.1 - -
04/08:40am 7.6 -0.1 3.2 74 1.9 WSW 33 41 18 22 1009.0 - -
04/08:30am 7.6 -1.7 3.2 74 1.9 WSW 41 50 22 27 1008.8 - -
04/08:20am 7.9 -1.9 3.2 72 2.0 SW 44 57 24 31 1008.9 - -
04/08:10am 8.2 -1.6 3.3 71 2.1 WSW 44 50 24 27 1008.7 - -
04/08:00am 8.3 -1.5 3.2 70 2.2 WSW 44 52 24 28 1008.6 - -
04/07:50am 8.7 -0.5 3.6 70 2.2 WSW 41 52 22 28 1008.8 - -
04/07:40am 8.4 -0.4 3.7 72 2.0 WSW 39 46 21 25 1008.8 - -
04/07:30am 8.2 -0.6 3.6 73 2.0 WSW 39 46 21 25 1008.7 - -
04/07:20am 7.8 0.1 3.4 74 1.9 WSW 33 39 18 21 1008.6 - -
04/07:10am 7.7 -0.4 3.5 75 1.8 SW 35 46 19 25 1008.4 - -
04/07:00am 7.6 -0.4 3.6 76 1.7 SW 35 43 19 23 1008.3 - -
04/06:50am 7.5 -0.9 3.7 77 1.6 SW 37 44 20 24 1008.4 - -
04/06:40am 7.4 -1.4 3.6 77 1.6 SW 39 43 21 23 1008.8 - -
04/06:30am 7.3 -1.5 3.4 76 1.7 SW 39 46 21 25 1009.3 - -
04/06:20am 7.6 -2.2 3.5 75 1.7 SW 44 56 24 30 1009.3 - -
04/06:10am 7.5 -0.9 3.5 76 1.7 SW 37 48 20 26 1009.0 - -
04/06:00am 7.6 -2.0 3.5 75 1.7 SSW 43 54 23 29 1009.5 - -
04/05:50am 8.0 -1.1 3.8 75 1.8 SW 41 50 22 27 1009.1 - -
04/05:40am 7.9 -1.6 3.8 75 1.8 SW 43 52 23 28 1008.9 - -
04/05:30am 8.2 -1.8 4.1 75 1.8 SSW 46 57 25 31 1008.9 - -
04/05:20am 8.4 -2.4 4.1 74 1.9 SSW 50 63 27 34 1008.7 - -
04/05:10am 8.8 -0.8 4.2 73 2.0 SSW 44 54 24 29 1008.2 - -
04/05:00am 9.0 -0.1 4.2 72 2.1 SW 41 50 22 27 1008.2 - -
04/04:50am 9.5 0.1 4.3 70 2.3 SW 43 52 23 28 1007.8 - -
04/04:40am 9.9 -0.9 3.9 66 2.6 WSW 50 61 27 33 1007.4 - -
04/04:30am 10.1 -1.1 4.0 66 2.7 WSW 52 63 28 34 1007.3 - -
04/04:20am 10.2 -1.5 3.6 63 2.9 WSW 54 65 29 35 1007.2 - -
04/04:10am 10.3 -1.0 3.2 61 3.1 WSW 52 61 28 33 1007.3 - -
04/04:00am 10.2 -0.4 3.2 62 3.0 WSW 48 61 26 33 1007.4 - -
04/03:50am 10.3 -0.2 3.8 64 2.9 WSW 48 59 26 32 1007.6 - -
04/03:40am 10.3 0.3 4.1 65 2.8 WSW 46 52 25 28 1007.7 - -
04/03:30am 10.3 0.9 4.2 66 2.7 WSW 43 50 23 27 1007.8 - -
04/03:20am 10.4 -0.3 4.5 67 2.6 WSW 50 57 27 31 1007.5 - -
04/03:10am 10.4 -0.7 4.6 67 2.6 WSW 52 59 28 32 1007.4 - -
04/03:00am 10.4 -1.1 4.5 67 2.6 WSW 54 61 29 33 1007.4 - -
04/02:50am 10.6 0.7 4.6 66 2.7 WSW 46 54 25 29 1007.5 - -
04/02:40am 10.8 -0.2 4.8 66 2.7 WSW 52 63 28 34 1007.4 - -
04/02:30am 10.8 0.2 4.9 67 2.7 WSW 50 57 27 31 1007.6 - -
04/02:20am 10.9 0.4 5.8 71 2.4 WSW 50 57 27 31 1007.6 - -
04/02:10am 11.4 3.7 7.0 74 2.1 WSW 37 50 20 27 1008.0 - -
04/02:00am 11.5 4.8 7.4 76 2.0 W 32 37 17 20 1008.3 - -
04/01:50am 11.6 5.7 7.6 76 1.9 W 28 32 15 17 1008.6 - -
04/01:40am 11.6 5.7 7.5 76 2.0 W 28 32 15 17 1008.6 - -
04/01:30am 11.6 6.8 7.5 76 2.0 W 22 28 12 15 1008.6 - -
04/01:20am 11.5 6.7 7.5 76 1.9 WSW 22 30 12 16 1008.7 - -
04/01:10am 11.4 7.0 7.4 76 1.9 WSW 20 22 11 12 1008.8 - -
04/01:00am 11.4 7.2 7.4 76 1.9 WSW 19 26 10 14 1008.9 - -
04/12:50am 11.3 7.5 7.4 77 1.9 WSW 17 22 9 12 1008.9 - -
04/12:40am 11.3 7.5 7.4 77 1.9 WSW 17 20 9 11 1009.0 - -
04/12:30am 11.2 7.7 7.3 77 1.9 WSW 15 17 8 9 1009.1 - -
04/12:20am 11.3 7.4 7.3 76 1.9 WSW 17 20 9 11 1009.1 - -
04/12:10am 11.3 7.4 7.3 76 1.9 WSW 17 20 9 11 1009.3 - -
04/12:00am 11.3 7.1 7.4 77 1.9 WSW 19 24 10 13 1009.5 - -
 
Date/Time
EST
Temp
°C
App
Temp
°C
Dew
Point
°C
Rel
Hum
%
Delta-T
°C
Wind Press
QNH
hPa
Press
MSL
hPa
Rain since
9am
mm
Dir  Spd
km/h
Gust
km/h
Spd
kts
Gust
kts
03/11:00pm 11.3 7.8 7.3 76 1.9 WSW 15 17 8 9 1010.0 - -
03/10:50pm 11.3 7.8 7.2 76 2.0 WSW 15 19 8 10 1010.0 - -
03/10:40pm 11.3 7.4 7.3 76 1.9 WSW 17 19 9 10 1010.1 - -
03/10:30pm 11.3 7.4 7.3 76 1.9 WSW 17 19 9 10 1010.2 - -
03/10:20pm 11.4 7.5 7.3 76 2.0 SW 17 20 9 11 1010.4 - -
03/10:10pm 11.4 7.2 7.3 76 2.0 SW 19 22 10 12 1010.6 - -
03/10:00pm 11.5 6.7 7.4 76 2.0 SW 22 26 12 14 1010.7 - -
03/09:50pm 11.5 6.7 7.5 76 1.9 SW 22 26 12 14 1010.8 - -
03/09:40pm 11.5 6.8 7.6 77 1.9 SW 22 28 12 15 1010.9 - -
03/09:30pm 11.6 6.9 7.8 77 1.8 SW 22 26 12 14 1011.0 - -
03/09:20pm 11.6 6.9 7.8 77 1.8 SW 22 26 12 14 1011.2 - -
03/09:10pm 11.6 7.3 7.9 78 1.8 SW 20 26 11 14 1011.3 - -
03/09:00pm 11.5 7.8 7.8 78 1.8 SW 17 20 9 11 1011.3 - -
03/08:50pm 11.5 7.8 7.8 78 1.8 SW 17 22 9 12 1011.4 - -
03/08:40pm 11.5 7.8 7.8 78 1.8 SW 17 22 9 12 1011.5 - -
03/08:30pm 11.5 7.4 7.8 78 1.8 SW 19 20 10 11 1011.6 - -
03/08:20pm 11.5 7.2 7.8 78 1.8 SSW 20 24 11 13 1011.7 - -
03/08:10pm 11.6 7.5 7.8 77 1.8 SSW 19 22 10 12 1011.8 - -
03/08:00pm 11.5 7.4 7.7 77 1.8 SSW 19 20 10 11 1011.7 - -
03/07:50pm 11.5 7.7 7.6 77 1.9 SSW 17 20 9 11 1011.8 - -
03/07:40pm 11.7 7.5 7.6 76 2.0 S 19 22 10 12 1011.9 - -
03/07:30pm 11.8 8.0 7.5 75 2.1 SSW 17 20 9 11 1011.9 - -
03/07:20pm 11.8 7.6 7.5 75 2.1 SSW 19 22 10 12 1011.9 - -
03/07:10pm 11.9 7.5 7.4 74 2.2 SSW 20 24 11 13 1012.0 - -
03/07:00pm 12.3 7.5 7.4 72 2.4 SSW 22 32 12 17 1012.1 - -
03/06:50pm 12.6 7.3 6.8 68 2.8 SW 24 32 13 17 1011.8 - -
03/06:40pm 12.5 7.2 6.7 68 2.8 SW 24 28 13 15 1011.7 - -
03/06:30pm 12.5 6.8 6.6 67 2.8 SW 26 30 14 16 1011.6 - -
03/06:20pm 12.5 7.2 6.7 68 2.8 SW 24 28 13 15 1011.6 - -
03/06:10pm 12.5 6.8 6.7 68 2.8 SW 26 30 14 16 1011.6 - -
03/06:00pm 12.6 6.5 6.8 68 2.8 SW 28 32 15 17 1011.6 - -
03/05:50pm 12.6 6.1 6.6 67 2.9 SW 30 32 16 17 1011.5 - -
03/05:40pm 12.6 6.1 6.7 67 2.8 SW 30 33 16 18 1011.5 - -
03/05:30pm 12.6 6.5 6.7 67 2.8 SW 28 33 15 18 1011.5 - -
03/05:20pm 12.6 6.1 6.6 67 2.9 SW 30 35 16 19 1011.5 - -
03/05:10pm 12.5 6.0 6.7 68 2.8 SW 30 35 16 19 1011.5 - -
03/05:00pm 12.5 6.4 6.8 68 2.7 SW 28 35 15 19 1011.5 - -
03/04:50pm 12.6 6.6 6.9 68 2.7 SW 28 33 15 18 1011.4 - -
03/04:40pm 12.6 6.2 6.8 68 2.8 SW 30 33 16 18 1011.3 - -
03/04:30pm 12.7 6.7 7.0 68 2.7 SW 28 32 15 17 1011.3 - -
03/04:20pm 12.8 6.7 6.7 66 2.9 SW 28 33 15 18 1011.4 - -
03/04:10pm 12.9 6.4 6.5 65 3.1 SW 30 33 16 18 1011.3 - -
03/04:00pm 13.0 6.1 6.3 64 3.2 SW 32 35 17 19 1011.2 - -
03/03:50pm 13.1 6.6 6.3 63 3.2 SW 30 35 16 19 1011.3 - -
03/03:40pm 13.2 7.1 6.4 63 3.3 SW 28 32 15 17 1011.2 - -
03/03:30pm 13.2 6.7 6.3 63 3.3 SW 30 33 16 18 1011.2 - -
03/03:20pm 13.2 7.5 6.5 64 3.2 SW 26 32 14 17 1011.4 - -
03/03:10pm 13.2 7.5 6.6 64 3.2 SW 26 30 14 16 1011.3 - -
03/03:00pm 13.2 7.5 6.5 64 3.2 SW 26 30 14 16 1011.4 - -
03/02:50pm 13.1 7.4 6.6 64 3.1 SW 26 32 14 17 1011.4 - -
03/02:40pm 13.1 7.4 6.7 65 3.1 SW 26 32 14 17 1011.5 - -
03/02:30pm 13.0 7.7 6.6 65 3.1 SW 24 28 13 15 1011.6 - -
03/02:20pm 13.1 7.8 6.9 66 3.0 SW 24 28 13 15 1011.6 - -
03/02:10pm 13.2 8.0 7.1 66 3.0 SW 24 28 13 15 1011.7 - -
03/02:00pm 13.3 8.1 7.2 66 3.0 WSW 24 30 13 16 1011.7 - -
03/01:50pm 13.3 7.3 7.1 66 3.0 WSW 28 30 15 16 1011.8 - -
03/01:40pm 13.3 6.5 7.0 65 3.1 WSW 32 37 17 20 1011.8 - -
03/01:30pm 13.3 6.6 7.2 66 3.0 WSW 32 35 17 19 1011.8 - -
03/01:20pm 13.3 6.6 7.5 68 2.8 WSW 32 37 17 20 1012.0 - -
03/01:10pm 13.2 7.3 7.6 69 2.7 WSW 28 33 15 18 1012.2 - -
03/01:00pm 13.3 8.6 7.8 69 2.7 WSW 22 30 12 16 1012.4 - -
03/12:50pm 13.1 8.4 7.6 69 2.7 W 22 28 12 15 1012.5 - -
03/12:40pm 13.2 8.5 7.7 69 2.7 W 22 28 12 15 1012.6 - -
03/12:30pm 13.2 8.5 7.8 70 2.7 W 22 26 12 14 1012.6 - -
03/12:20pm 13.2 8.5 7.7 69 2.7 WSW 22 26 12 14 1012.7 - -
03/12:10pm 13.2 8.5 7.6 69 2.7 WSW 22 26 12 14 1012.8 - -
03/12:00pm 13.3 8.6 7.6 68 2.8 WSW 22 26 12 14 1013.0 - -
03/11:50am 13.3 8.9 7.5 68 2.8 WSW 20 24 11 13 1013.2 - -
03/11:40am 13.3 8.9 7.4 67 2.9 WSW 20 24 11 13 1013.4 - -
03/11:30am 13.4 9.0 7.5 67 2.9 WSW 20 24 11 13 1013.7 - -
03/11:20am 13.4 8.6 7.4 67 2.9 WSW 22 24 12 13 1013.8 - -
03/11:10am 13.6 8.5 7.5 66 3.0 WSW 24 28 13 15 1013.9 - -
03/11:00am 13.5 8.3 7.3 66 3.0 WSW 24 30 13 16 1014.1 - -
03/10:50am 13.5 8.3 7.4 66 3.0 WSW 24 28 13 15 1014.3 - -
03/10:40am 13.6 8.2 7.9 68 2.8 WSW 26 30 14 16 1014.4 - -
03/10:30am 13.5 9.3 8.2 70 2.6 WSW 20 32 11 17 1014.7 - -
03/10:20am 13.6 9.6 8.3 70 2.6 WSW 19 24 10 13 1014.9 - -
03/10:10am 13.7 9.8 8.5 71 2.6 WSW 19 24 10 13 1015.1 - -
03/10:00am 13.7 9.8 8.5 71 2.6 W 19 22 10 12 1015.3 - -
03/09:50am 13.7 9.7 8.4 70 2.7 W 19 22 10 12 1015.3 - -
03/09:40am 13.7 9.7 8.3 70 2.7 W 19 22 10 12 1015.3 - -
03/09:30am 13.9 9.9 8.4 69 2.8 W 19 20 10 11 1015.4 - -
03/09:20am 14.0 10.4 8.5 69 2.8 W 17 20 9 11 1015.5 - -
03/09:10am 14.2 11.0 8.6 69 2.8 W 15 19 8 10 1015.6 - -
03/09:00am 14.2 11.1 8.7 69 2.8 W 15 19 8 10 1015.6 - -
03/08:50am 14.1 11.0 8.8 70 2.7 W 15 20 8 11 1015.7 - -
03/08:40am 14.0 10.9 8.9 71 2.6 W 15 19 8 10 1015.6 - -
03/08:30am 14.1 11.4 9.0 71 2.6 W 13 17 7 9 1015.5 - -
03/08:20am 14.0 11.3 9.1 72 2.5 W 13 17 7 9 1015.6 - -
03/08:10am 13.8 11.1 9.0 73 2.4 W 13 17 7 9 1015.6 - -
03/08:00am 13.6 10.9 8.8 73 2.4 W 13 17 7 9 1015.6 - -
03/07:50am 13.6 10.4 8.6 72 2.5 W 15 19 8 10 1015.7 - -
03/07:40am 13.3 10.1 8.3 72 2.5 W 15 19 8 10 1015.7 - -
03/07:30am 13.1 9.4 8.0 71 2.5 W 17 19 9 10 1015.7 - -
03/07:20am 13.1 9.4 7.9 70 2.6 W 17 20 9 11 1015.7 - -
03/07:10am 13.4 9.2 8.2 71 2.6 W 20 24 11 13 1015.7 - -
03/07:00am 12.8 8.1 7.7 71 2.5 W 22 24 12 13 1015.7 - -
03/06:50am 12.7 8.0 7.7 71 2.4 W 22 26 12 14 1015.7 - -
03/06:40am 12.7 8.4 7.9 72 2.4 WNW 20 26 11 14 1015.6 - -
03/06:30am 12.7 8.4 7.9 72 2.4 WNW 20 26 11 14 1015.6 - -
03/06:20am 12.6 8.3 8.0 73 2.3 WNW 20 26 11 14 1015.6 - -
03/06:10am 12.6 8.4 8.1 74 2.2 WNW 20 24 11 13 1015.5 - -
03/06:00am 12.7 8.7 8.2 74 2.2 WNW 19 22 10 12 1015.4 - -
03/05:50am 12.7 8.5 8.2 74 2.2 NW 20 24 11 13 1015.2 - -
03/05:40am 12.7 8.7 8.3 74 2.2 NW 19 22 10 12 1015.2 - -
03/05:30am 12.6 8.4 8.4 75 2.1 NW 20 24 11 13 1015.2 - -
03/05:20am 12.6 8.5 8.5 76 2.0 NW 20 24 11 13 1015.1 - -
03/05:10am 12.5 8.4 8.7 77 1.9 NW 20 24 11 13 1015.0 - -
03/05:00am 12.6 8.6 9.0 79 1.8 NW 20 24 11 13 1015.0 - -
03/04:50am 12.6 8.6 9.1 79 1.8 NW 20 24 11 13 1015.0 - -
03/04:40am 12.4 8.6 9.2 81 1.6 NNW 19 24 10 13 1015.0 - -
03/04:30am 12.3 8.9 9.3 82 1.5 NNW 17 20 9 11 1015.1 - -
03/04:20am 12.4 9.1 9.4 82 1.5 NNW 17 20 9 11 1015.1 - -
03/04:10am 12.4 9.8 9.4 82 1.5 N 13 19 7 10 1015.3 - -
03/04:00am 12.4 10.2 9.4 82 1.5 N 11 17 6 9 1015.5 - -
03/03:50am 12.5 10.3 9.4 81 1.6 NNW 11 15 6 8 1015.6 - -
03/03:40am 12.5 10.3 9.3 81 1.6 NNW 11 15 6 8 1015.6 - -
03/03:30am 12.5 10.3 9.2 80 1.7 N 11 15 6 8 1015.6 - -
03/03:20am 12.5 9.9 9.2 80 1.7 N 13 15 7 8 1015.6 - -
03/03:10am 12.5 9.9 9.2 80 1.7 N 13 17 7 9 1015.7 - -
03/03:00am 12.4 9.7 9.1 80 1.7 N 13 15 7 8 1015.8 - -
03/02:50am 12.5 10.2 9.1 80 1.7 N 11 15 6 8 1015.9 - -
03/02:40am 12.5 10.2 9.0 79 1.8 N 11 13 6 7 1016.0 - -
03/02:30am 12.5 10.6 8.9 79 1.8 NNE 9 11 5 6 1016.2 - -
03/02:20am 12.5 10.9 8.8 78 1.9 NNE 7 9 4 5 1016.5 - -
03/02:10am 12.5 11.1 8.7 77 1.9 NNE 6 7 3 4 1016.7 - -
03/02:00am 12.4 10.9 8.5 77 1.9 NNE 6 7 3 4 1016.9 - -
03/01:50am 12.4 10.9 8.5 77 1.9 NNE 6 7 3 4 1017.0 - -
03/01:40am 12.6 11.2 8.7 77 1.9 NNE 6 7 3 4 1017.0 - -
03/01:30am 12.6 11.2 8.7 77 1.9 NNE 6 7 3 4 1017.2 - -
03/01:20am 12.7 11.2 8.6 76 2.0 NNE 6 7 3 4 1017.3 - -
03/01:10am 12.6 11.5 8.5 76 2.0 NNE 4 6 2 3 1017.5 - -
03/01:00am 12.6 11.5 8.5 76 2.0 NNE 4 4 2 2 1017.7 - -
03/12:50am 12.6 11.5 8.4 75 2.1 NNE 4 4 2 2 1017.7 - -
03/12:40am 12.5 11.7 8.3 75 2.1 NE 2 4 1 2 1017.8 - -
03/12:30am 12.6 12.2 8.3 75 2.1 CALM 0 0 0 0 1017.9 - -
03/12:20am 12.7 12.3 8.3 74 2.2 CALM 0 0 0 0 1018.0 - -
03/12:10am 12.7 12.0 8.4 75 2.1 SSW 2 2 1 1 1018.2 - -
03/12:00am 12.7 12.0 8.4 75 2.1 SSW 2 4 1 2 1018.4 - -
 
Date/Time
EST
Temp
°C
App
Temp
°C
Dew
Point
°C
Rel
Hum
%
Delta-T
°C
Wind Press
QNH
hPa
Press
MSL
hPa
Rain since
9am
mm
Dir  Spd
km/h
Gust
km/h
Spd
kts
Gust
kts
02/10:50pm 12.4 11.9 7.8 73 2.3 CALM 0 2 0 1 1019.4 - -
02/10:40pm 12.5 11.6 7.8 73 2.3 S 2 2 1 1 1019.4 - -
02/10:30pm 12.6 11.8 8.0 73 2.3 S 2 2 1 1 1019.6 - -
02/10:20pm 12.6 11.7 7.9 73 2.3 S 2 2 1 1 1019.7 - -
02/10:10pm 12.6 11.7 7.9 73 2.3 S 2 2 1 1 1019.8 - -
02/10:00pm 12.6 11.7 7.9 73 2.3 S 2 2 1 1 1019.9 - -
02/09:50pm 12.6 12.1 7.9 73 2.3 CALM 0 2 0 1 1020.0 - -
02/09:40pm 12.7 11.8 7.9 72 2.4 S 2 4 1 2 1020.2 - -
02/09:30pm 12.7 11.9 8.0 73 2.3 SSE 2 4 1 2 1020.2 - -
02/09:20pm 12.7 11.8 7.9 72 2.4 S 2 2 1 1 1020.2 - -
02/09:10pm 12.7 12.2 7.8 72 2.4 CALM 0 2 0 1 1020.2 - -
02/09:00pm 12.8 12.3 7.7 71 2.5 CALM 0 2 0 1 1020.4 - -

Other formats

Comma delimited format used in spreadsheet applications
http://www.bom.gov.au/fwo/IDV60801/IDV60801.55039.axf

JavaScript Object Notation format (JSON) in row-major order
http://www.bom.gov.au/fwo/IDV60801/IDV60801.55039.json

Data quality

Most of these data are generated automatically and are frequently updated. Quality checks on data are not normally performed. It is possible for incorrect values to appear. Refer to information at About Latest Weather Observations and please check the disclaimer before using these data.